createdAt,value
2018-10-17T00:01:46.759Z,8.20
2018-10-17T00:04:14.324Z,8.48
2018-10-17T00:06:41.917Z,8.45
2018-10-17T00:09:10.495Z,8.47
2018-10-17T00:11:38.146Z,8.38
2018-10-17T00:14:06.069Z,8.36
2018-10-17T00:16:33.668Z,8.36
2018-10-17T00:19:01.253Z,8.37
2018-10-17T00:21:28.895Z,8.47
2018-10-17T00:23:56.479Z,8.26
2018-10-17T00:26:24.102Z,7.84
2018-10-17T00:28:51.685Z,7.92
2018-10-17T00:31:19.658Z,7.96
2018-10-17T00:33:47.148Z,8.10
2018-10-17T00:36:14.671Z,7.87
2018-10-17T00:38:42.239Z,7.86
2018-10-17T00:41:09.778Z,7.95
2018-10-17T00:43:37.231Z,7.95
2018-10-17T00:46:05.195Z,7.94
2018-10-17T00:48:32.745Z,8.04
2018-10-17T00:51:00.855Z,8.07
2018-10-17T00:53:28.537Z,8.21
2018-10-17T00:55:56.142Z,8.21
2018-10-17T00:58:23.746Z,7.97
2018-10-17T01:00:51.316Z,8.03
2018-10-17T01:03:18.846Z,8.06
2018-10-17T01:05:46.422Z,8.00
2018-10-17T01:08:13.947Z,8.02
2018-10-17T01:10:41.496Z,8.05
2018-10-17T01:13:09.204Z,8.00
2018-10-17T01:15:36.686Z,6.83
2018-10-17T01:18:04.268Z,7.15
2018-10-17T01:20:31.898Z,7.04
2018-10-17T01:22:59.510Z,6.67
2018-10-17T01:25:27.198Z,7.42
2018-10-17T01:27:54.854Z,7.71
2018-10-17T01:30:22.469Z,7.71
2018-10-17T01:32:50.138Z,7.80
2018-10-17T01:35:17.821Z,7.98
2018-10-17T01:37:45.352Z,8.04
2018-10-17T01:40:13.129Z,8.00
2018-10-17T01:42:41.342Z,7.99
2018-10-17T01:45:09.554Z,7.86
2018-10-17T01:47:37.152Z,7.86
2018-10-17T01:50:05.422Z,7.89
2018-10-17T01:52:33.042Z,7.79
2018-10-17T01:55:00.625Z,8.06
2018-10-17T01:57:28.393Z,7.98
2018-10-17T01:59:56.065Z,7.93
2018-10-17T02:02:23.758Z,7.77
2018-10-17T02:04:51.417Z,7.86
2018-10-17T02:07:19.035Z,7.62
2018-10-17T02:09:46.645Z,7.75
2018-10-17T02:12:14.234Z,7.65
2018-10-17T02:14:41.924Z,7.60
2018-10-17T02:17:09.553Z,7.54
2018-10-17T02:19:37.327Z,7.21
2018-10-17T02:22:04.969Z,7.36
2018-10-17T02:24:32.636Z,7.14
2018-10-17T02:27:00.316Z,7.20
2018-10-17T02:29:28.351Z,7.21
2018-10-17T02:31:56.230Z,7.26
2018-10-17T02:34:23.824Z,6.04
2018-10-17T02:36:51.559Z,7.09
2018-10-17T02:39:19.129Z,7.13
2018-10-17T02:41:46.869Z,7.04
2018-10-17T02:44:14.551Z,7.12
2018-10-17T02:46:42.179Z,6.81
2018-10-17T02:49:09.893Z,6.95
2018-10-17T02:51:37.414Z,6.93
2018-10-17T02:54:06.124Z,7.05
2018-10-17T02:56:33.754Z,6.87
2018-10-17T02:59:01.576Z,6.84
2018-10-17T03:01:29.082Z,6.77
2018-10-17T03:03:57.123Z,6.85
2018-10-17T03:06:24.857Z,6.63
2018-10-17T03:08:52.629Z,6.65
2018-10-17T03:11:20.348Z,6.67
2018-10-17T03:13:48.035Z,6.78
2018-10-17T03:16:15.747Z,6.84
2018-10-17T03:18:43.345Z,6.93
2018-10-17T03:21:10.979Z,6.74
2018-10-17T03:23:38.661Z,6.30
2018-10-17T03:26:06.320Z,6.22
2018-10-17T03:28:33.999Z,6.35
2018-10-17T03:31:01.675Z,6.17
2018-10-17T03:33:29.591Z,6.07
2018-10-17T03:35:57.163Z,6.44
2018-10-17T03:38:24.798Z,6.44
2018-10-17T03:40:52.552Z,6.37
2018-10-17T03:43:20.204Z,6.51
2018-10-17T03:45:47.813Z,6.41
2018-10-17T03:48:15.894Z,6.26
2018-10-17T03:50:43.476Z,6.34
2018-10-17T03:53:11.050Z,6.23
2018-10-17T03:55:38.634Z,6.02
2018-10-17T03:58:06.281Z,5.74
2018-10-17T04:00:34.196Z,5.85
2018-10-17T04:03:01.913Z,5.92
2018-10-17T04:05:29.479Z,6.03
2018-10-17T04:07:57.048Z,6.06
2018-10-17T04:10:24.646Z,6.14
2018-10-17T04:12:52.205Z,5.91
2018-10-17T04:15:19.718Z,6.01
2018-10-17T04:17:47.303Z,5.81
2018-10-17T04:20:14.865Z,6.03
2018-10-17T04:22:51.125Z,6.17
2018-10-17T04:25:18.785Z,6.44
2018-10-17T04:27:46.240Z,6.41
2018-10-17T04:30:13.770Z,6.35
2018-10-17T04:32:41.240Z,6.47
2018-10-17T04:35:08.754Z,6.53
2018-10-17T04:37:37.009Z,6.38
2018-10-17T04:40:04.779Z,6.41
2018-10-17T04:42:32.283Z,6.27
2018-10-17T04:44:59.759Z,6.25
2018-10-17T04:47:27.498Z,6.03
2018-10-17T04:49:54.986Z,5.99
2018-10-17T04:52:22.519Z,5.69
2018-10-17T04:54:50.019Z,5.81
2018-10-17T04:57:17.479Z,5.84
2018-10-17T04:59:45.146Z,5.46
2018-10-17T05:02:12.634Z,5.48
2018-10-17T05:04:40.226Z,5.58
2018-10-17T05:07:08.392Z,5.75
2018-10-17T05:09:42.724Z,5.68
2018-10-17T05:12:10.322Z,5.82
2018-10-17T05:14:37.966Z,5.79
2018-10-17T05:17:05.673Z,5.89
2018-10-17T05:19:33.164Z,5.66
2018-10-17T05:22:00.678Z,5.59
2018-10-17T05:24:28.186Z,5.74
2018-10-17T05:26:55.739Z,5.72
2018-10-17T05:29:29.939Z,5.84
2018-10-17T05:31:57.394Z,5.60
2018-10-17T05:34:25.281Z,5.60
2018-10-17T05:36:52.805Z,5.60
2018-10-17T05:39:20.252Z,5.51
2018-10-17T05:41:47.732Z,5.35
2018-10-17T05:44:15.336Z,5.49
2018-10-17T05:46:42.852Z,5.51
2018-10-17T05:49:10.330Z,5.66
2018-10-17T05:51:37.902Z,5.70
2018-10-17T05:54:05.474Z,5.70
2018-10-17T05:56:32.957Z,6.03
2018-10-17T05:59:00.478Z,5.86
2018-10-17T06:01:28.142Z,5.88
2018-10-17T06:03:55.554Z,5.61
2018-10-17T06:06:23.034Z,5.57
2018-10-17T06:08:50.650Z,5.23
2018-10-17T06:11:18.168Z,4.96
2018-10-17T06:13:45.673Z,5.22
2018-10-17T06:16:13.185Z,5.22
2018-10-17T06:18:40.731Z,5.35
2018-10-17T06:21:08.201Z,5.54
2018-10-17T06:23:35.739Z,5.05
2018-10-17T06:26:03.218Z,5.53
2018-10-17T06:28:30.943Z,5.54
2018-10-17T06:30:58.450Z,5.60
2018-10-17T06:33:25.992Z,5.47
2018-10-17T06:35:53.432Z,5.58
2018-10-17T06:38:20.958Z,5.86
2018-10-17T06:40:48.402Z,5.87
2018-10-17T06:43:15.987Z,5.78
2018-10-17T06:45:43.449Z,5.88
2018-10-17T06:48:10.994Z,5.85
2018-10-17T06:50:38.492Z,5.74
2018-10-17T06:53:06.049Z,5.73
2018-10-17T06:55:33.542Z,5.71
2018-10-17T06:58:01.063Z,5.66
2018-10-17T07:00:28.545Z,5.49
2018-10-17T07:02:56.016Z,5.41
2018-10-17T07:05:23.613Z,5.26
2018-10-17T07:07:51.199Z,5.64
2018-10-17T07:10:18.644Z,5.55
2018-10-17T07:12:46.086Z,5.68
2018-10-17T07:15:13.626Z,5.77
2018-10-17T07:17:41.143Z,6.18
2018-10-17T07:20:09.086Z,6.33
2018-10-17T07:22:36.557Z,6.34
2018-10-17T07:25:05.762Z,6.55
2018-10-17T07:27:38.521Z,6.59
2018-10-17T07:30:07.553Z,6.79
2018-10-17T07:32:35.112Z,6.87
2018-10-17T07:35:02.792Z,7.24
2018-10-17T07:37:30.288Z,7.40
2018-10-17T07:39:57.736Z,7.56
2018-10-17T07:42:25.220Z,7.55
2018-10-17T07:44:52.642Z,7.57
2018-10-17T07:47:20.255Z,7.59
2018-10-17T07:49:47.731Z,7.73
2018-10-17T07:52:15.136Z,7.80
2018-10-17T07:54:42.684Z,7.92
2018-10-17T07:57:10.210Z,7.97
2018-10-17T07:59:37.663Z,8.03
2018-10-17T08:02:05.199Z,8.14
2018-10-17T08:04:32.704Z,8.18
2018-10-17T08:07:00.226Z,8.32
2018-10-17T08:09:27.651Z,8.50
2018-10-17T08:11:55.929Z,8.66
2018-10-17T08:14:23.517Z,8.98
2018-10-17T08:16:51.121Z,9.22
2018-10-17T08:19:18.530Z,9.37
2018-10-17T08:21:45.998Z,9.38
2018-10-17T08:24:13.569Z,9.68
2018-10-17T08:26:40.929Z,9.77
2018-10-17T08:29:08.369Z,9.95
2018-10-17T08:31:35.809Z,10.08
2018-10-17T08:34:03.321Z,10.26
2018-10-17T08:36:31.009Z,10.31
2018-10-17T08:38:58.264Z,10.34
2018-10-17T08:41:25.724Z,10.48
2018-10-17T08:43:53.215Z,10.73
2018-10-17T08:46:20.668Z,10.94
2018-10-17T08:48:48.080Z,11.14
2018-10-17T08:51:15.516Z,11.25
2018-10-17T08:53:42.975Z,11.42
2018-10-17T08:56:10.541Z,11.64
2018-10-17T08:58:37.861Z,11.87
2018-10-17T09:01:05.442Z,11.94
2018-10-17T09:03:32.862Z,12.00
2018-10-17T09:06:00.268Z,12.13
2018-10-17T09:08:27.807Z,12.18
2018-10-17T09:10:55.214Z,12.24
2018-10-17T09:13:22.724Z,12.38
2018-10-17T09:15:50.186Z,12.43
2018-10-17T09:18:17.832Z,12.56
2018-10-17T09:20:45.416Z,12.66
2018-10-17T09:23:12.779Z,12.72
2018-10-17T09:25:40.501Z,12.87
2018-10-17T09:28:08.017Z,13.13
2018-10-17T09:30:35.451Z,13.27
2018-10-17T09:33:02.971Z,13.41
2018-10-17T09:35:30.524Z,13.39
2018-10-17T09:37:58.212Z,13.44
2018-10-17T09:40:25.771Z,13.66
2018-10-17T09:42:53.231Z,13.74
2018-10-17T09:45:20.762Z,13.83
2018-10-17T09:47:48.352Z,13.96
2018-10-17T09:50:15.824Z,14.07
2018-10-17T09:52:43.264Z,13.99
2018-10-17T09:55:10.664Z,14.08
2018-10-17T09:57:38.090Z,14.25
2018-10-17T10:00:11.706Z,14.41
2018-10-17T10:02:39.088Z,14.55
2018-10-17T10:05:06.526Z,14.87
2018-10-17T10:07:34.066Z,15.06
2018-10-17T10:10:01.537Z,15.19
2018-10-17T10:12:28.972Z,15.01
2018-10-17T10:14:56.540Z,14.92
2018-10-17T10:17:24.088Z,15.28
2018-10-17T10:19:51.429Z,15.53
2018-10-17T10:22:18.881Z,15.62
2018-10-17T10:24:46.465Z,15.62
2018-10-17T10:27:13.880Z,15.44
2018-10-17T10:29:41.391Z,15.63
2018-10-17T10:32:09.959Z,15.70
2018-10-17T10:34:37.354Z,16.00
2018-10-17T10:37:05.029Z,15.93
2018-10-17T10:39:32.447Z,15.80
2018-10-17T10:41:59.938Z,15.85
2018-10-17T10:44:27.344Z,16.10
2018-10-17T10:46:54.886Z,16.54
2018-10-17T10:49:22.334Z,16.74
2018-10-17T10:51:49.826Z,16.77
2018-10-17T10:54:17.353Z,16.64
2018-10-17T10:56:44.763Z,16.99
2018-10-17T10:59:12.355Z,17.08
2018-10-17T11:01:39.739Z,17.41
2018-10-17T11:04:07.257Z,17.53
2018-10-17T11:06:34.779Z,17.33
2018-10-17T11:09:02.189Z,17.41
2018-10-17T11:11:29.630Z,17.37
2018-10-17T11:13:57.126Z,17.22
2018-10-17T11:16:24.595Z,17.32
2018-10-17T11:18:52.049Z,16.26
2018-10-17T11:21:19.437Z,17.41
2018-10-17T11:23:46.837Z,17.62
2018-10-17T11:26:14.230Z,17.86
2018-10-17T11:28:41.649Z,18.06
2018-10-17T11:31:09.066Z,18.42
2018-10-17T11:33:36.507Z,18.14
2018-10-17T11:36:03.982Z,17.17
2018-10-17T11:38:31.383Z,18.06
2018-10-17T11:40:58.826Z,18.30
2018-10-17T11:43:26.224Z,18.42
2018-10-17T11:45:53.771Z,18.40
2018-10-17T11:48:21.423Z,18.83
2018-10-17T11:50:48.935Z,19.48
2018-10-17T11:53:16.500Z,19.46
2018-10-17T11:55:43.880Z,19.49
2018-10-17T11:58:11.445Z,19.21
2018-10-17T12:00:38.828Z,19.30
2018-10-17T12:03:06.331Z,19.66
2018-10-17T12:05:34.217Z,20.26
2018-10-17T12:08:01.395Z,20.79
2018-10-17T12:10:28.852Z,20.57
2018-10-17T12:12:56.379Z,21.11
2018-10-17T12:15:23.856Z,21.47
2018-10-17T12:17:51.415Z,21.63
2018-10-17T12:20:18.850Z,20.81
2018-10-17T12:22:46.221Z,20.85
2018-10-17T12:25:14.113Z,20.83
2018-10-17T12:27:41.633Z,20.86
2018-10-17T12:30:11.491Z,20.63
2018-10-17T12:32:38.929Z,20.42
2018-10-17T12:35:06.768Z,20.41
2018-10-17T12:37:35.209Z,21.37
2018-10-17T12:40:02.881Z,21.77
2018-10-17T12:42:30.344Z,22.15
2018-10-17T12:44:57.887Z,21.18
2018-10-17T12:47:25.287Z,22.09
2018-10-17T12:49:53.016Z,22.66
2018-10-17T12:52:20.433Z,22.67
2018-10-17T12:54:47.948Z,22.28
2018-10-17T12:57:15.463Z,22.88
2018-10-17T12:59:43.947Z,23.21
2018-10-17T13:02:11.666Z,23.30
2018-10-17T13:04:39.599Z,23.09
2018-10-17T13:07:08.237Z,23.40
2018-10-17T13:09:35.936Z,22.91
2018-10-17T13:12:03.632Z,22.93
2018-10-17T13:14:32.157Z,23.07
2018-10-17T13:16:59.970Z,23.80
2018-10-17T13:19:27.658Z,23.48
2018-10-17T13:21:55.129Z,23.34
2018-10-17T13:24:22.698Z,23.69
2018-10-17T13:26:50.512Z,24.24
2018-10-17T13:29:18.098Z,24.32
2018-10-17T13:31:45.613Z,23.79
2018-10-17T13:34:13.563Z,22.87
2018-10-17T13:36:41.163Z,22.96
2018-10-17T13:39:11.257Z,23.93
2018-10-17T13:41:39.341Z,24.10
2018-10-17T13:44:07.706Z,24.00
2018-10-17T13:46:35.315Z,22.67
2018-10-17T13:49:03.089Z,22.21
2018-10-17T13:51:30.648Z,22.72
2018-10-17T13:53:58.356Z,23.56
2018-10-17T13:56:25.937Z,24.02
2018-10-17T13:58:53.447Z,24.01
2018-10-17T14:01:21.222Z,23.74
2018-10-17T14:03:48.857Z,23.81
2018-10-17T14:06:16.937Z,24.04
2018-10-17T14:08:44.815Z,24.60
2018-10-17T14:11:12.426Z,24.90
2018-10-17T14:13:40.393Z,24.79
2018-10-17T14:16:09.324Z,24.93
2018-10-17T14:18:37.079Z,24.91
2018-10-17T14:21:04.920Z,24.88
2018-10-17T14:23:32.665Z,24.85
2018-10-17T14:26:00.464Z,24.16
2018-10-17T14:28:28.164Z,24.41
2018-10-17T14:30:56.010Z,23.57
2018-10-17T14:33:23.882Z,24.01
2018-10-17T14:35:51.637Z,24.29
2018-10-17T14:38:19.298Z,24.41
2018-10-17T14:40:47.695Z,23.73
2018-10-17T14:43:15.798Z,23.32
2018-10-17T14:45:43.555Z,23.91
2018-10-17T14:48:11.426Z,22.37
2018-10-17T14:50:39.155Z,23.14
2018-10-17T14:53:09.441Z,23.72
2018-10-17T14:55:38.255Z,24.11
2018-10-17T14:58:06.454Z,24.34
2018-10-17T15:00:34.374Z,24.10
2018-10-17T15:03:02.345Z,23.67
2018-10-17T15:05:30.518Z,23.57
2018-10-17T15:07:59.317Z,23.12
2018-10-17T15:10:31.417Z,22.41
2018-10-17T15:12:59.286Z,21.94
2018-10-17T15:15:28.536Z,21.17
2018-10-17T15:17:56.786Z,21.06
2018-10-17T15:20:24.690Z,20.80
2018-10-17T15:22:53.620Z,20.62
2018-10-17T15:25:21.495Z,20.24
2018-10-17T15:27:49.317Z,20.01
2018-10-17T15:30:17.616Z,19.85
2018-10-17T15:32:45.720Z,19.64
2018-10-17T15:35:13.465Z,19.46
2018-10-17T15:37:41.462Z,19.43
2018-10-17T15:40:09.280Z,19.17
2018-10-17T15:42:37.094Z,18.98
2018-10-17T15:45:06.501Z,18.93
2018-10-17T15:47:34.508Z,18.85
2018-10-17T15:50:02.291Z,18.69
2018-10-17T15:52:30.101Z,18.60
2018-10-17T15:54:57.807Z,17.02
2018-10-17T15:57:25.543Z,18.39
2018-10-17T16:02:59.455Z,18.12
2018-10-17T16:05:27.188Z,17.89
2018-10-17T16:07:54.777Z,17.73
2018-10-17T16:10:22.140Z,17.59
2018-10-17T16:12:49.541Z,17.42
2018-10-17T16:15:16.952Z,17.30
2018-10-17T16:17:44.321Z,17.17
2018-10-17T16:20:12.524Z,17.09
2018-10-17T16:22:40.134Z,16.89
2018-10-17T16:25:08.156Z,16.78
2018-10-17T16:27:35.582Z,16.71
2018-10-17T16:30:03.417Z,16.49
2018-10-17T16:32:34.182Z,16.40
2018-10-17T16:35:02.350Z,16.39
2018-10-17T16:50:24.373Z,16.23
2018-10-17T16:52:52.024Z,15.49
2018-10-17T16:55:19.494Z,15.47
2018-10-17T16:57:46.949Z,15.38
2018-10-17T17:00:14.443Z,15.29
2018-10-17T17:02:41.794Z,15.19
2018-10-17T17:05:11.555Z,15.14
2018-10-17T17:07:39.257Z,15.07
2018-10-17T17:10:07.194Z,15.05
2018-10-17T17:12:34.594Z,14.95
2018-10-17T17:15:02.261Z,14.85
2018-10-17T17:17:29.658Z,14.78
2018-10-17T17:19:57.320Z,14.63
2018-10-17T17:22:24.755Z,14.59
2018-10-17T17:24:52.166Z,14.51
2018-10-17T17:27:20.029Z,14.33
2018-10-17T17:29:47.460Z,14.20
2018-10-17T17:32:14.788Z,14.10
2018-10-17T17:34:42.729Z,13.91
2018-10-17T17:37:10.142Z,13.87
2018-10-17T17:39:37.621Z,13.80
2018-10-17T17:42:05.139Z,13.83
2018-10-17T17:44:32.635Z,13.79
2018-10-17T17:46:59.988Z,13.73
2018-10-17T17:49:27.488Z,13.64
2018-10-17T17:51:55.087Z,13.58
2018-10-17T17:54:22.606Z,13.68
2018-10-17T17:56:49.990Z,12.94
2018-10-17T17:59:17.485Z,12.93
2018-10-17T18:01:44.971Z,13.07
2018-10-17T18:04:12.398Z,13.22
2018-10-17T18:06:39.928Z,13.16
2018-10-17T18:09:08.754Z,13.20
2018-10-17T18:11:36.238Z,13.26
2018-10-17T18:14:03.973Z,13.10
2018-10-17T18:16:31.406Z,13.06
2018-10-17T18:18:58.941Z,12.95
2018-10-17T18:21:31.907Z,13.01
2018-10-17T18:23:59.396Z,13.01
2018-10-17T18:26:26.879Z,12.77
2018-10-17T18:28:54.407Z,12.66
2018-10-17T18:31:21.934Z,12.31
2018-10-17T18:33:49.470Z,12.25
2018-10-17T18:36:17.031Z,12.03
2018-10-17T18:38:44.561Z,11.91
2018-10-17T18:41:12.073Z,12.06
2018-10-17T18:43:39.654Z,11.97
2018-10-17T18:46:07.494Z,12.09
2018-10-17T18:48:35.040Z,11.96
2018-10-17T18:51:02.570Z,11.99
2018-10-17T18:53:30.043Z,11.99
2018-10-17T18:55:57.623Z,11.99
2018-10-17T18:58:25.244Z,11.96
2018-10-17T19:00:52.687Z,11.92
2018-10-17T19:03:20.301Z,11.92
2018-10-17T19:05:47.788Z,11.89
2018-10-17T19:08:15.377Z,11.63
2018-10-17T19:10:43.137Z,11.50
2018-10-17T19:13:10.719Z,11.42
2018-10-17T19:15:38.357Z,11.59
2018-10-17T19:18:06.007Z,11.45
2018-10-17T19:20:33.780Z,11.49
2018-10-17T19:23:01.441Z,11.54
2018-10-17T19:25:28.838Z,11.45
2018-10-17T19:27:56.417Z,11.24
2018-10-17T19:30:24.509Z,11.29
2018-10-17T19:32:54.211Z,11.40
2018-10-17T19:35:22.312Z,11.06
2018-10-17T19:37:50.373Z,11.24
2018-10-17T19:40:18.226Z,11.31
2018-10-17T19:42:46.427Z,11.20
2018-10-17T19:45:14.509Z,11.20
2018-10-17T19:47:42.596Z,11.23
2018-10-17T19:50:10.597Z,11.13
2018-10-17T19:52:38.347Z,11.02
2018-10-17T19:55:07.970Z,10.90
2018-10-17T19:57:35.777Z,10.84
2018-10-17T20:00:04.349Z,10.82
2018-10-17T20:02:33.615Z,10.86
2018-10-17T20:05:01.235Z,10.77
2018-10-17T20:07:30.005Z,10.65
2018-10-17T20:09:57.807Z,10.55
2018-10-17T20:12:26.203Z,10.26
2018-10-17T20:14:54.122Z,8.89
2018-10-17T20:17:22.488Z,10.14
2018-10-17T20:19:50.399Z,10.25
2018-10-17T20:22:18.816Z,10.20
2018-10-17T20:24:46.860Z,10.21
2018-10-17T20:27:22.599Z,10.27
2018-10-17T20:29:50.368Z,10.36
2018-10-17T20:32:18.036Z,10.32
2018-10-17T20:34:46.023Z,10.18
2018-10-17T20:37:13.375Z,10.18
2018-10-17T20:39:40.702Z,10.23
2018-10-17T20:42:08.105Z,9.96
2018-10-17T20:44:35.610Z,10.08
2018-10-17T20:47:08.552Z,10.00
2018-10-17T20:49:37.223Z,9.99
2018-10-17T20:52:04.634Z,9.91
2018-10-17T20:54:32.123Z,9.54
2018-10-17T20:56:59.503Z,9.07
2018-10-17T20:59:26.902Z,9.21
2018-10-17T21:01:54.389Z,9.39
2018-10-17T21:04:21.776Z,9.37
2018-10-17T21:06:49.211Z,9.52
2018-10-17T21:09:16.591Z,9.54
2018-10-17T21:11:44.018Z,9.55
2018-10-17T21:14:11.700Z,9.78
2018-10-17T21:16:40.033Z,9.84
2018-10-17T21:19:07.766Z,9.65
2018-10-17T21:21:35.155Z,9.68
2018-10-17T21:24:02.603Z,9.64
2018-10-17T21:26:30.053Z,9.72
2018-10-17T21:28:57.381Z,9.78
2018-10-17T21:31:24.768Z,9.42
2018-10-17T21:33:52.055Z,9.45
2018-10-17T21:36:19.706Z,9.03
2018-10-17T21:38:47.132Z,9.07
2018-10-17T21:41:14.517Z,9.14
2018-10-17T21:43:41.983Z,9.27
2018-10-17T21:46:09.362Z,9.20
2018-10-17T21:48:36.737Z,9.22
2018-10-17T21:51:04.392Z,9.00
2018-10-17T21:53:31.774Z,9.00
2018-10-17T21:55:59.157Z,8.99
2018-10-17T21:58:26.517Z,8.83
2018-10-17T22:00:53.814Z,8.70
2018-10-17T22:03:21.191Z,8.89
2018-10-17T22:05:48.586Z,8.97
2018-10-17T22:08:16.024Z,8.97
2018-10-17T22:10:43.383Z,8.93
2018-10-17T22:13:10.739Z,8.97
2018-10-17T22:15:41.254Z,9.08
2018-10-17T22:18:08.641Z,9.16
2018-10-17T22:20:36.017Z,9.01
2018-10-17T22:23:03.374Z,8.79
2018-10-17T22:25:30.814Z,8.69
2018-10-17T22:27:58.347Z,8.84
2018-10-17T22:30:25.741Z,8.77
2018-10-17T22:32:53.137Z,8.29
2018-10-17T22:35:20.458Z,8.47
2018-10-17T22:37:47.835Z,8.38
2018-10-17T22:40:15.193Z,8.51
2018-10-17T22:42:42.595Z,8.49
2018-10-17T22:45:09.919Z,8.45
2018-10-17T22:47:37.348Z,8.62
2018-10-17T22:50:06.099Z,8.54
2018-10-17T22:52:33.474Z,8.52
2018-10-17T22:55:00.866Z,8.35
2018-10-17T22:57:28.249Z,8.19
2018-10-17T22:59:55.644Z,8.14
2018-10-17T23:02:22.978Z,8.18
2018-10-17T23:04:50.339Z,8.33
2018-10-17T23:07:17.734Z,8.27
2018-10-17T23:09:45.113Z,8.16
2018-10-17T23:12:12.485Z,8.21
2018-10-17T23:14:39.795Z,8.18
2018-10-17T23:17:07.146Z,8.14
2018-10-17T23:19:34.517Z,8.20
2018-10-17T23:22:01.913Z,7.92
2018-10-17T23:24:29.304Z,7.65
2018-10-17T23:26:56.740Z,7.35
2018-10-17T23:29:24.145Z,7.49
2018-10-17T23:31:51.582Z,7.59
2018-10-17T23:34:18.959Z,7.76
2018-10-17T23:36:46.309Z,7.56
2018-10-17T23:39:13.634Z,7.41
2018-10-17T23:41:41.060Z,7.42
2018-10-17T23:44:08.676Z,7.52
2018-10-17T23:46:35.982Z,7.66
2018-10-17T23:49:03.482Z,7.70
2018-10-17T23:51:30.886Z,7.56
2018-10-17T23:53:58.270Z,7.70
2018-10-17T23:56:25.643Z,7.69
2018-10-17T23:58:53.013Z,7.79
